sensor_id;sensor_type;location;lat;lon;timestamp;P1;durP1;ratioP1;P2;durP2;ratioP2
21589;SDS011;10957;50.968;6.828;2023-05-02T00:00:41;4.30;;;4.10;;
21589;SDS011;10957;50.968;6.828;2023-05-02T00:05:45;4.25;;;4.05;;
21589;SDS011;10957;50.968;6.828;2023-05-02T00:10:46;4.22;;;4.03;;
21589;SDS011;10957;50.968;6.828;2023-05-02T00:15:47;4.80;;;4.55;;
21589;SDS011;10957;50.968;6.828;2023-05-02T00:20:49;4.85;;;4.50;;
21589;SDS011;10957;50.968;6.828;2023-05-02T00:25:50;5.45;;;5.18;;
21589;SDS011;10957;50.968;6.828;2023-05-02T00:30:51;5.38;;;5.07;;
21589;SDS011;10957;50.968;6.828;2023-05-02T00:35:53;5.00;;;4.80;;
21589;SDS011;10957;50.968;6.828;2023-05-02T00:40:54;5.53;;;5.22;;
21589;SDS011;10957;50.968;6.828;2023-05-02T00:45:56;5.30;;;5.00;;
21589;SDS011;10957;50.968;6.828;2023-05-02T00:50:58;4.22;;;4.03;;
21589;SDS011;10957;50.968;6.828;2023-05-02T00:56:02;4.22;;;4.03;;
21589;SDS011;10957;50.968;6.828;2023-05-02T01:16:47;4.30;;;4.10;;
21589;SDS011;10957;50.968;6.828;2023-05-02T01:21:52;4.53;;;4.22;;
21589;SDS011;10957;50.968;6.828;2023-05-02T01:27:14;4.75;;;4.55;;
21589;SDS011;10957;50.968;6.828;2023-05-02T01:32:24;4.25;;;4.05;;
21589;SDS011;10957;50.968;6.828;2023-05-02T01:37:27;4.72;;;4.53;;
21589;SDS011;10957;50.968;6.828;2023-05-02T01:42:30;5.18;;;4.88;;
21589;SDS011;10957;50.968;6.828;2023-05-02T01:47:34;6.13;;;5.72;;
21589;SDS011;10957;50.968;6.828;2023-05-02T01:52:37;4.20;;;4.00;;
21589;SDS011;10957;50.968;6.828;2023-05-02T01:57:41;4.82;;;4.63;;
21589;SDS011;10957;50.968;6.828;2023-05-02T02:02:45;5.50;;;5.20;;
21589;SDS011;10957;50.968;6.828;2023-05-02T02:07:48;4.60;;;4.40;;
21589;SDS011;10957;50.968;6.828;2023-05-02T02:12:51;5.47;;;5.18;;
21589;SDS011;10957;50.968;6.828;2023-05-02T02:17:55;4.95;;;4.75;;
21589;SDS011;10957;50.968;6.828;2023-05-02T02:23:02;5.10;;;4.82;;
21589;SDS011;10957;50.968;6.828;2023-05-02T02:28:07;4.97;;;4.75;;
21589;SDS011;10957;50.968;6.828;2023-05-02T02:33:08;5.18;;;4.88;;
21589;SDS011;10957;50.968;6.828;2023-05-02T02:43:39;4.22;;;4.03;;
21589;SDS011;10957;50.968;6.828;2023-05-02T02:49:21;4.15;;;3.95;;
21589;SDS011;10957;50.968;6.828;2023-05-02T02:54:45;4.00;;;3.80;;
21589;SDS011;10957;50.968;6.828;2023-05-02T02:59:57;5.03;;;4.72;;
21589;SDS011;10957;50.968;6.828;2023-05-02T03:05:00;4.30;;;4.10;;
21589;SDS011;10957;50.968;6.828;2023-05-02T03:10:04;4.82;;;4.63;;
21589;SDS011;10957;50.968;6.828;2023-05-02T03:15:22;4.50;;;4.30;;
21589;SDS011;10957;50.968;6.828;2023-05-02T03:20:46;5.28;;;4.97;;
21589;SDS011;10957;50.968;6.828;2023-05-02T03:25:47;4.25;;;4.05;;
21589;SDS011;10957;50.968;6.828;2023-05-02T03:30:54;4.70;;;4.50;;
21589;SDS011;10957;50.968;6.828;2023-05-02T03:35:56;4.18;;;3.95;;
21589;SDS011;10957;50.968;6.828;2023-05-02T03:40:58;4.22;;;4.03;;
21589;SDS011;10957;50.968;6.828;2023-05-02T03:46:07;5.32;;;5.07;;
21589;SDS011;10957;50.968;6.828;2023-05-02T03:51:14;5.10;;;4.80;;
21589;SDS011;10957;50.968;6.828;2023-05-02T03:56:18;4.28;;;4.07;;
21589;SDS011;10957;50.968;6.828;2023-05-02T04:01:25;4.38;;;4.18;;
21589;SDS011;10957;50.968;6.828;2023-05-02T04:06:28;4.00;;;3.80;;
21589;SDS011;10957;50.968;6.828;2023-05-02T04:11:35;4.05;;;3.85;;
21589;SDS011;10957;50.968;6.828;2023-05-02T04:16:38;4.68;;;4.47;;
21589;SDS011;10957;50.968;6.828;2023-05-02T04:21:40;3.92;;;3.75;;
21589;SDS011;10957;50.968;6.828;2023-05-02T04:26:43;4.30;;;4.00;;
21589;SDS011;10957;50.968;6.828;2023-05-02T04:31:47;6.10;;;4.68;;
21589;SDS011;10957;50.968;6.828;2023-05-02T04:36:49;5.93;;;4.80;;
21589;SDS011;10957;50.968;6.828;2023-05-02T04:41:55;3.25;;;3.15;;
21589;SDS011;10957;50.968;6.828;2023-05-02T04:46:59;4.80;;;3.80;;
21589;SDS011;10957;50.968;6.828;2023-05-02T04:52:00;3.22;;;3.13;;
21589;SDS011;10957;50.968;6.828;2023-05-02T04:57:02;3.33;;;3.22;;
21589;SDS011;10957;50.968;6.828;2023-05-02T05:02:08;3.67;;;3.50;;
21589;SDS011;10957;50.968;6.828;2023-05-02T05:07:12;4.32;;;4.10;;
21589;SDS011;10957;50.968;6.828;2023-05-02T05:12:14;3.72;;;3.55;;
21589;SDS011;10957;50.968;6.828;2023-05-02T05:17:15;4.25;;;4.05;;
21589;SDS011;10957;50.968;6.828;2023-05-02T05:22:16;3.88;;;3.67;;
21589;SDS011;10957;50.968;6.828;2023-05-02T05:27:19;4.22;;;4.03;;
21589;SDS011;10957;50.968;6.828;2023-05-02T05:32:21;3.30;;;3.20;;
21589;SDS011;10957;50.968;6.828;2023-05-02T05:37:24;4.13;;;3.92;;
21589;SDS011;10957;50.968;6.828;2023-05-02T05:42:26;3.70;;;3.47;;
21589;SDS011;10957;50.968;6.828;2023-05-02T05:47:31;4.95;;;4.50;;
21589;SDS011;10957;50.968;6.828;2023-05-02T05:52:33;3.80;;;3.60;;
21589;SDS011;10957;50.968;6.828;2023-05-02T05:57:36;3.40;;;3.30;;
21589;SDS011;10957;50.968;6.828;2023-05-02T06:02:38;3.50;;;3.40;;
21589;SDS011;10957;50.968;6.828;2023-05-02T06:07:40;3.45;;;3.35;;
21589;SDS011;10957;50.968;6.828;2023-05-02T06:12:41;4.60;;;4.20;;
21589;SDS011;10957;50.968;6.828;2023-05-02T06:17:44;3.53;;;3.42;;
21589;SDS011;10957;50.968;6.828;2023-05-02T06:22:46;3.50;;;3.40;;
21589;SDS011;10957;50.968;6.828;2023-05-02T06:27:47;3.47;;;3.38;;
21589;SDS011;10957;50.968;6.828;2023-05-02T06:32:48;3.35;;;3.25;;
21589;SDS011;10957;50.968;6.828;2023-05-02T06:37:50;4.35;;;4.15;;
21589;SDS011;10957;50.968;6.828;2023-05-02T06:42:51;3.95;;;3.75;;
21589;SDS011;10957;50.968;6.828;2023-05-02T06:47:52;3.75;;;3.65;;
21589;SDS011;10957;50.968;6.828;2023-05-02T06:52:54;3.92;;;3.72;;
21589;SDS011;10957;50.968;6.828;2023-05-02T06:57:55;3.42;;;3.33;;
21589;SDS011;10957;50.968;6.828;2023-05-02T07:02:56;4.47;;;4.28;;
21589;SDS011;10957;50.968;6.828;2023-05-02T07:07:58;3.80;;;3.65;;
21589;SDS011;10957;50.968;6.828;2023-05-02T07:12:59;3.65;;;3.55;;
21589;SDS011;10957;50.968;6.828;2023-05-02T07:18:00;4.38;;;4.15;;
21589;SDS011;10957;50.968;6.828;2023-05-02T07:23:01;3.95;;;3.75;;
21589;SDS011;10957;50.968;6.828;2023-05-02T07:28:03;3.38;;;3.28;;
21589;SDS011;10957;50.968;6.828;2023-05-02T07:33:05;3.53;;;3.40;;
21589;SDS011;10957;50.968;6.828;2023-05-02T07:38:07;3.35;;;3.25;;
21589;SDS011;10957;50.968;6.828;2023-05-02T07:43:08;3.38;;;3.28;;
21589;SDS011;10957;50.968;6.828;2023-05-02T07:48:09;3.80;;;3.60;;
21589;SDS011;10957;50.968;6.828;2023-05-02T07:53:11;3.10;;;3.00;;
21589;SDS011;10957;50.968;6.828;2023-05-02T07:58:12;3.00;;;2.90;;
21589;SDS011;10957;50.968;6.828;2023-05-02T08:03:13;3.10;;;3.00;;
21589;SDS011;10957;50.968;6.828;2023-05-02T08:08:15;2.80;;;2.70;;
21589;SDS011;10957;50.968;6.828;2023-05-02T08:13:16;4.53;;;4.22;;
21589;SDS011;10957;50.968;6.828;2023-05-02T08:18:17;3.40;;;3.17;;
21589;SDS011;10957;50.968;6.828;2023-05-02T08:23:19;2.85;;;2.75;;
21589;SDS011;10957;50.968;6.828;2023-05-02T08:28:20;3.00;;;2.90;;
21589;SDS011;10957;50.968;6.828;2023-05-02T08:33:21;3.30;;;3.15;;
21589;SDS011;10957;50.968;6.828;2023-05-02T08:38:23;3.03;;;2.92;;
21589;SDS011;10957;50.968;6.828;2023-05-02T08:43:24;3.00;;;2.90;;
21589;SDS011;10957;50.968;6.828;2023-05-02T08:48:25;2.85;;;2.75;;
21589;SDS011;10957;50.968;6.828;2023-05-02T08:53:31;3.13;;;3.03;;
21589;SDS011;10957;50.968;6.828;2023-05-02T08:58:34;3.13;;;3.03;;
21589;SDS011;10957;50.968;6.828;2023-05-02T09:03:36;3.00;;;2.90;;
21589;SDS011;10957;50.968;6.828;2023-05-02T09:08:38;2.80;;;2.70;;
21589;SDS011;10957;50.968;6.828;2023-05-02T09:13:50;3.03;;;2.92;;
21589;SDS011;10957;50.968;6.828;2023-05-02T09:18:52;2.95;;;2.85;;
21589;SDS011;10957;50.968;6.828;2023-05-02T09:23:55;2.40;;;2.30;;
21589;SDS011;10957;50.968;6.828;2023-05-02T09:29:03;2.90;;;2.80;;
21589;SDS011;10957;50.968;6.828;2023-05-02T09:34:08;2.70;;;2.60;;
21589;SDS011;10957;50.968;6.828;2023-05-02T09:39:12;2.83;;;2.65;;
21589;SDS011;10957;50.968;6.828;2023-05-02T09:44:19;2.80;;;2.70;;
21589;SDS011;10957;50.968;6.828;2023-05-02T09:49:40;2.50;;;2.40;;
21589;SDS011;10957;50.968;6.828;2023-05-02T09:54:45;3.08;;;2.97;;
21589;SDS011;10957;50.968;6.828;2023-05-02T09:59:54;3.08;;;2.92;;
21589;SDS011;10957;50.968;6.828;2023-05-02T10:04:56;2.22;;;2.13;;
21589;SDS011;10957;50.968;6.828;2023-05-02T10:09:59;2.67;;;2.58;;
21589;SDS011;10957;50.968;6.828;2023-05-02T10:15:02;2.45;;;2.35;;
21589;SDS011;10957;50.968;6.828;2023-05-02T10:20:05;4.78;;;2.90;;
21589;SDS011;10957;50.968;6.828;2023-05-02T10:25:07;3.58;;;3.38;;
21589;SDS011;10957;50.968;6.828;2023-05-02T10:30:09;2.67;;;2.58;;
21589;SDS011;10957;50.968;6.828;2023-05-02T10:35:12;2.33;;;2.22;;
21589;SDS011;10957;50.968;6.828;2023-05-02T10:40:16;2.28;;;2.17;;
21589;SDS011;10957;50.968;6.828;2023-05-02T10:45:34;2.70;;;2.60;;
21589;SDS011;10957;50.968;6.828;2023-05-02T10:50:53;3.72;;;3.42;;
21589;SDS011;10957;50.968;6.828;2023-05-02T10:56:11;2.38;;;2.28;;
21589;SDS011;10957;50.968;6.828;2023-05-02T11:11:56;3.72;;;3.42;;
21589;SDS011;10957;50.968;6.828;2023-05-02T11:37:52;2.17;;;2.08;;
21589;SDS011;10957;50.968;6.828;2023-05-02T11:42:53;2.50;;;2.40;;
21589;SDS011;10957;50.968;6.828;2023-05-02T11:47:56;2.67;;;2.58;;
21589;SDS011;10957;50.968;6.828;2023-05-02T11:52:57;2.00;;;1.90;;
21589;SDS011;10957;50.968;6.828;2023-05-02T11:57:58;2.30;;;2.20;;
21589;SDS011;10957;50.968;6.828;2023-05-02T12:03:01;2.38;;;2.28;;
21589;SDS011;10957;50.968;6.828;2023-05-02T12:08:02;2.72;;;2.63;;
21589;SDS011;10957;50.968;6.828;2023-05-02T12:13:04;2.50;;;2.40;;
21589;SDS011;10957;50.968;6.828;2023-05-02T12:18:06;3.17;;;2.95;;
21589;SDS011;10957;50.968;6.828;2023-05-02T12:23:08;2.30;;;2.20;;
21589;SDS011;10957;50.968;6.828;2023-05-02T12:28:09;2.97;;;2.78;;
21589;SDS011;10957;50.968;6.828;2023-05-02T12:33:11;2.60;;;2.50;;
21589;SDS011;10957;50.968;6.828;2023-05-02T12:38:16;2.55;;;2.45;;
21589;SDS011;10957;50.968;6.828;2023-05-02T12:43:20;2.53;;;2.42;;
21589;SDS011;10957;50.968;6.828;2023-05-02T13:03:46;3.00;;;2.90;;
21589;SDS011;10957;50.968;6.828;2023-05-02T13:08:50;3.05;;;2.95;;
21589;SDS011;10957;50.968;6.828;2023-05-02T13:13:54;2.50;;;2.40;;
21589;SDS011;10957;50.968;6.828;2023-05-02T13:18:56;2.88;;;2.78;;
21589;SDS011;10957;50.968;6.828;2023-05-02T13:23:57;3.92;;;3.35;;
21589;SDS011;10957;50.968;6.828;2023-05-02T13:28:58;2.80;;;2.70;;
21589;SDS011;10957;50.968;6.828;2023-05-02T13:34:00;2.50;;;2.40;;
21589;SDS011;10957;50.968;6.828;2023-05-02T13:39:01;3.17;;;2.97;;
21589;SDS011;10957;50.968;6.828;2023-05-02T13:44:02;2.97;;;2.78;;
21589;SDS011;10957;50.968;6.828;2023-05-02T13:49:04;3.55;;;3.10;;
21589;SDS011;10957;50.968;6.828;2023-05-02T13:54:05;2.70;;;2.60;;
21589;SDS011;10957;50.968;6.828;2023-05-02T13:59:07;2.40;;;2.30;;
21589;SDS011;10957;50.968;6.828;2023-05-02T14:04:08;2.67;;;2.58;;
21589;SDS011;10957;50.968;6.828;2023-05-02T14:09:10;3.05;;;2.95;;
21589;SDS011;10957;50.968;6.828;2023-05-02T14:14:11;2.88;;;2.78;;
21589;SDS011;10957;50.968;6.828;2023-05-02T14:19:13;2.85;;;2.75;;
21589;SDS011;10957;50.968;6.828;2023-05-02T14:24:14;2.80;;;2.70;;
21589;SDS011;10957;50.968;6.828;2023-05-02T14:29:16;2.80;;;2.70;;
21589;SDS011;10957;50.968;6.828;2023-05-02T14:34:18;4.03;;;3.80;;
21589;SDS011;10957;50.968;6.828;2023-05-02T14:39:21;2.90;;;2.80;;
21589;SDS011;10957;50.968;6.828;2023-05-02T14:44:23;3.00;;;2.90;;
21589;SDS011;10957;50.968;6.828;2023-05-02T14:49:26;2.80;;;2.70;;
21589;SDS011;10957;50.968;6.828;2023-05-02T14:54:27;2.72;;;2.63;;
21589;SDS011;10957;50.968;6.828;2023-05-02T14:59:32;3.38;;;3.08;;
21589;SDS011;10957;50.968;6.828;2023-05-02T15:04:36;3.00;;;2.90;;
21589;SDS011;10957;50.968;6.828;2023-05-02T15:09:37;2.45;;;2.35;;
21589;SDS011;10957;50.968;6.828;2023-05-02T15:14:38;2.88;;;2.78;;
21589;SDS011;10957;50.968;6.828;2023-05-02T15:19:40;2.90;;;2.80;;
21589;SDS011;10957;50.968;6.828;2023-05-02T15:24:41;2.60;;;2.50;;
21589;SDS011;10957;50.968;6.828;2023-05-02T15:29:42;2.65;;;2.55;;
21589;SDS011;10957;50.968;6.828;2023-05-02T15:34:43;2.50;;;2.40;;
21589;SDS011;10957;50.968;6.828;2023-05-02T15:39:46;3.22;;;3.00;;
21589;SDS011;10957;50.968;6.828;2023-05-02T15:44:47;2.50;;;2.40;;
21589;SDS011;10957;50.968;6.828;2023-05-02T15:49:49;2.25;;;2.15;;
21589;SDS011;10957;50.968;6.828;2023-05-02T15:54:55;2.50;;;2.40;;
21589;SDS011;10957;50.968;6.828;2023-05-02T15:59:58;2.75;;;2.58;;
21589;SDS011;10957;50.968;6.828;2023-05-02T16:04:59;2.65;;;2.55;;
21589;SDS011;10957;50.968;6.828;2023-05-02T16:10:01;2.65;;;2.55;;
21589;SDS011;10957;50.968;6.828;2023-05-02T16:15:02;2.90;;;2.80;;
21589;SDS011;10957;50.968;6.828;2023-05-02T16:20:04;3.08;;;2.97;;
21589;SDS011;10957;50.968;6.828;2023-05-02T16:25:06;2.60;;;2.50;;
21589;SDS011;10957;50.968;6.828;2023-05-02T16:30:07;3.25;;;3.05;;
21589;SDS011;10957;50.968;6.828;2023-05-02T16:35:09;2.60;;;2.50;;
21589;SDS011;10957;50.968;6.828;2023-05-02T16:40:12;2.80;;;2.70;;
21589;SDS011;10957;50.968;6.828;2023-05-02T16:45:13;2.65;;;2.55;;
21589;SDS011;10957;50.968;6.828;2023-05-02T16:50:15;2.40;;;2.30;;
21589;SDS011;10957;50.968;6.828;2023-05-02T16:55:16;3.05;;;2.85;;
21589;SDS011;10957;50.968;6.828;2023-05-02T17:00:18;2.38;;;2.28;;
21589;SDS011;10957;50.968;6.828;2023-05-02T17:05:19;2.80;;;2.60;;
21589;SDS011;10957;50.968;6.828;2023-05-02T17:10:22;2.70;;;2.60;;
21589;SDS011;10957;50.968;6.828;2023-05-02T17:15:23;5.75;;;2.90;;
21589;SDS011;10957;50.968;6.828;2023-05-02T17:20:24;11.85;;;3.10;;
21589;SDS011;10957;50.968;6.828;2023-05-02T17:25:26;2.53;;;2.42;;
21589;SDS011;10957;50.968;6.828;2023-05-02T17:30:27;2.60;;;2.50;;
21589;SDS011;10957;50.968;6.828;2023-05-02T17:35:28;2.40;;;2.30;;
21589;SDS011;10957;50.968;6.828;2023-05-02T17:40:31;2.80;;;2.70;;
21589;SDS011;10957;50.968;6.828;2023-05-02T17:45:32;2.80;;;2.70;;
21589;SDS011;10957;50.968;6.828;2023-05-02T17:50:39;2.67;;;2.53;;
21589;SDS011;10957;50.968;6.828;2023-05-02T17:55:41;3.50;;;3.25;;
21589;SDS011;10957;50.968;6.828;2023-05-02T18:00:42;2.20;;;2.10;;
21589;SDS011;10957;50.968;6.828;2023-05-02T18:05:43;2.78;;;2.67;;
21589;SDS011;10957;50.968;6.828;2023-05-02T18:10:46;2.55;;;2.45;;
21589;SDS011;10957;50.968;6.828;2023-05-02T18:15:57;2.15;;;2.05;;
21589;SDS011;10957;50.968;6.828;2023-05-02T18:20:59;2.60;;;2.50;;
21589;SDS011;10957;50.968;6.828;2023-05-02T18:26:00;2.88;;;2.67;;
21589;SDS011;10957;50.968;6.828;2023-05-02T18:31:01;2.17;;;2.08;;
21589;SDS011;10957;50.968;6.828;2023-05-02T18:36:03;2.70;;;2.60;;
21589;SDS011;10957;50.968;6.828;2023-05-02T18:41:05;3.50;;;3.08;;
21589;SDS011;10957;50.968;6.828;2023-05-02T18:46:08;2.53;;;2.42;;
21589;SDS011;10957;50.968;6.828;2023-05-02T18:51:11;2.28;;;2.17;;
21589;SDS011;10957;50.968;6.828;2023-05-02T18:56:13;2.10;;;2.00;;
21589;SDS011;10957;50.968;6.828;2023-05-02T19:01:14;3.53;;;3.25;;
21589;SDS011;10957;50.968;6.828;2023-05-02T19:06:16;2.42;;;2.33;;
21589;SDS011;10957;50.968;6.828;2023-05-02T19:11:18;2.08;;;1.98;;
21589;SDS011;10957;50.968;6.828;2023-05-02T19:16:19;2.38;;;2.28;;
21589;SDS011;10957;50.968;6.828;2023-05-02T19:21:25;2.03;;;1.92;;
21589;SDS011;10957;50.968;6.828;2023-05-02T19:26:27;2.67;;;2.47;;
21589;SDS011;10957;50.968;6.828;2023-05-02T19:31:28;2.30;;;2.20;;
21589;SDS011;10957;50.968;6.828;2023-05-02T19:36:29;2.83;;;2.72;;
21589;SDS011;10957;50.968;6.828;2023-05-02T19:41:30;2.28;;;2.17;;
21589;SDS011;10957;50.968;6.828;2023-05-02T19:46:31;2.13;;;2.03;;
21589;SDS011;10957;50.968;6.828;2023-05-02T19:51:33;2.00;;;1.90;;
21589;SDS011;10957;50.968;6.828;2023-05-02T19:56:34;2.28;;;2.17;;
21589;SDS011;10957;50.968;6.828;2023-05-02T20:01:36;2.00;;;1.90;;
21589;SDS011;10957;50.968;6.828;2023-05-02T20:06:37;3.70;;;2.70;;
21589;SDS011;10957;50.968;6.828;2023-05-02T20:11:38;2.40;;;2.30;;
21589;SDS011;10957;50.968;6.828;2023-05-02T20:16:39;2.20;;;2.10;;
21589;SDS011;10957;50.968;6.828;2023-05-02T20:21:41;2.00;;;1.90;;
21589;SDS011;10957;50.968;6.828;2023-05-02T20:26:42;2.35;;;2.25;;
21589;SDS011;10957;50.968;6.828;2023-05-02T20:31:43;2.30;;;2.20;;
21589;SDS011;10957;50.968;6.828;2023-05-02T20:36:44;2.50;;;2.40;;
21589;SDS011;10957;50.968;6.828;2023-05-02T20:41:46;2.45;;;2.35;;
21589;SDS011;10957;50.968;6.828;2023-05-02T20:46:49;2.25;;;2.15;;
21589;SDS011;10957;50.968;6.828;2023-05-02T20:51:51;2.08;;;1.98;;
21589;SDS011;10957;50.968;6.828;2023-05-02T20:56:52;2.28;;;2.17;;
21589;SDS011;10957;50.968;6.828;2023-05-02T21:01:53;2.38;;;2.28;;
21589;SDS011;10957;50.968;6.828;2023-05-02T21:06:55;1.70;;;1.70;;
21589;SDS011;10957;50.968;6.828;2023-05-02T21:11:56;2.35;;;2.25;;
21589;SDS011;10957;50.968;6.828;2023-05-02T21:16:57;2.20;;;2.10;;
21589;SDS011;10957;50.968;6.828;2023-05-02T21:21:58;3.00;;;2.80;;
21589;SDS011;10957;50.968;6.828;2023-05-02T21:26:59;2.35;;;2.25;;
21589;SDS011;10957;50.968;6.828;2023-05-02T21:32:01;2.40;;;2.30;;
21589;SDS011;10957;50.968;6.828;2023-05-02T21:37:02;2.60;;;2.50;;
21589;SDS011;10957;50.968;6.828;2023-05-02T21:42:04;2.40;;;2.30;;
21589;SDS011;10957;50.968;6.828;2023-05-02T21:47:05;2.60;;;2.50;;
21589;SDS011;10957;50.968;6.828;2023-05-02T21:52:06;2.30;;;2.20;;
21589;SDS011;10957;50.968;6.828;2023-05-02T21:57:07;2.78;;;2.67;;
21589;SDS011;10957;50.968;6.828;2023-05-02T22:02:09;2.75;;;2.65;;
21589;SDS011;10957;50.968;6.828;2023-05-02T22:07:10;2.33;;;2.22;;
21589;SDS011;10957;50.968;6.828;2023-05-02T22:12:14;2.90;;;2.80;;
21589;SDS011;10957;50.968;6.828;2023-05-02T22:17:15;2.47;;;2.38;;
21589;SDS011;10957;50.968;6.828;2023-05-02T22:22:18;2.60;;;2.50;;
21589;SDS011;10957;50.968;6.828;2023-05-02T22:27:19;3.55;;;3.35;;
21589;SDS011;10957;50.968;6.828;2023-05-02T22:32:20;2.60;;;2.50;;
21589;SDS011;10957;50.968;6.828;2023-05-02T22:37:25;2.75;;;2.65;;
21589;SDS011;10957;50.968;6.828;2023-05-02T22:42:26;3.58;;;3.38;;
21589;SDS011;10957;50.968;6.828;2023-05-02T22:47:28;2.70;;;2.60;;
21589;SDS011;10957;50.968;6.828;2023-05-02T22:52:30;2.72;;;2.63;;
21589;SDS011;10957;50.968;6.828;2023-05-02T22:57:38;2.72;;;2.63;;
21589;SDS011;10957;50.968;6.828;2023-05-02T23:02:40;2.80;;;2.70;;
21589;SDS011;10957;50.968;6.828;2023-05-02T23:07:41;2.60;;;2.50;;
21589;SDS011;10957;50.968;6.828;2023-05-02T23:12:42;2.70;;;2.60;;
21589;SDS011;10957;50.968;6.828;2023-05-02T23:17:44;3.17;;;2.97;;
21589;SDS011;10957;50.968;6.828;2023-05-02T23:22:45;2.60;;;2.50;;
21589;SDS011;10957;50.968;6.828;2023-05-02T23:27:46;2.75;;;2.65;;
21589;SDS011;10957;50.968;6.828;2023-05-02T23:32:48;2.60;;;2.50;;
21589;SDS011;10957;50.968;6.828;2023-05-02T23:37:49;2.92;;;2.83;;
21589;SDS011;10957;50.968;6.828;2023-05-02T23:42:50;4.50;;;2.95;;
21589;SDS011;10957;50.968;6.828;2023-05-02T23:47:53;3.05;;;2.95;;
21589;SDS011;10957;50.968;6.828;2023-05-02T23:52:55;2.80;;;2.70;;
21589;SDS011;10957;50.968;6.828;2023-05-02T23:57:56;2.75;;;2.65;;
